createdAt,value
2023-12-11T00:00:43.807Z,99716.43
2023-12-11T00:03:38.599Z,99714.17
2023-12-11T00:06:16.065Z,99717.19
2023-12-11T00:08:50.943Z,99718.61
2023-12-11T00:11:26.995Z,99718.67
2023-12-11T00:14:02.243Z,99718.95
2023-12-11T00:16:38.385Z,99712.14
2023-12-11T00:19:14.204Z,99712.86
2023-12-11T00:21:49.268Z,99709.39
2023-12-11T00:24:25.307Z,99708.27
2023-12-11T00:27:01.274Z,99703.31
2023-12-11T00:29:37.730Z,99693.67
2023-12-11T00:32:12.569Z,99691.80
2023-12-11T00:34:47.151Z,99694.13
2023-12-11T00:37:23.418Z,99694.98
2023-12-11T00:39:59.956Z,99692.30
2023-12-11T00:42:35.380Z,99689.84
2023-12-11T00:45:14.628Z,99680.64
2023-12-11T00:47:49.900Z,99683.56
2023-12-11T00:50:26.564Z,99681.37
2023-12-11T00:53:01.671Z,99681.95
2023-12-11T00:55:39.054Z,99682.41
2023-12-11T00:58:13.318Z,99675.42
2023-12-11T01:00:51.884Z,99672.02
2023-12-11T01:03:32.401Z,99673.33
2023-12-11T01:06:09.478Z,99668.38
2023-12-11T01:08:44.245Z,99665.10
2023-12-11T01:11:21.286Z,99661.31
2023-12-11T01:13:57.166Z,99668.08
2023-12-11T01:16:33.400Z,99667.11
2023-12-11T01:19:10.326Z,99667.44
2023-12-11T01:21:46.654Z,99665.28
2023-12-11T01:24:20.998Z,99666.77
2023-12-11T01:26:56.504Z,99669.80
2023-12-11T01:29:32.810Z,99672.32
2023-12-11T01:32:10.171Z,99665.02
2023-12-11T01:34:45.990Z,99668.30
2023-12-11T01:37:22.767Z,99668.11
2023-12-11T01:39:59.650Z,99662.37
2023-12-11T01:42:35.633Z,99657.73
2023-12-11T01:45:16.238Z,99660.55
2023-12-11T01:47:52.950Z,99659.27
2023-12-11T01:50:29.816Z,99651.17
2023-12-11T01:53:06.126Z,99648.08
2023-12-11T01:55:41.577Z,99642.63
2023-12-11T01:58:21.138Z,99648.23
2023-12-11T02:00:57.745Z,99641.17
2023-12-11T02:03:33.970Z,99635.34
2023-12-11T02:06:10.175Z,99631.98
2023-12-11T02:08:47.619Z,99629.75
2023-12-11T02:11:23.908Z,99628.66
2023-12-11T02:13:59.490Z,99630.98
2023-12-11T02:16:33.610Z,99631.32
2023-12-11T02:19:10.859Z,99633.98
2023-12-11T02:21:46.182Z,99634.96
2023-12-11T02:24:29.773Z,99629.29
2023-12-11T02:27:05.612Z,99627.47
2023-12-11T02:29:42.072Z,99620.84
2023-12-11T02:32:18.337Z,99617.57
2023-12-11T02:34:54.219Z,99610.59
2023-12-11T02:37:32.685Z,99607.73
2023-12-11T02:40:13.904Z,99599.05
2023-12-11T02:42:54.600Z,99593.97
2023-12-11T02:45:28.718Z,99589.46
2023-12-11T02:48:05.132Z,99596.36
2023-12-11T02:50:41.786Z,99591.34
2023-12-11T02:53:16.946Z,99594.20
2023-12-11T02:55:51.700Z,99582.84
2023-12-11T02:58:25.329Z,99579.92
2023-12-11T03:01:01.536Z,99572.65
2023-12-11T03:03:37.791Z,99571.02
2023-12-11T03:06:22.431Z,99569.41
2023-12-11T03:08:58.285Z,99568.01
2023-12-11T03:11:34.924Z,99559.35
2023-12-11T03:14:10.229Z,99553.61
2023-12-11T03:16:44.925Z,99555.70
2023-12-11T03:19:21.950Z,99548.45
2023-12-11T03:21:58.765Z,99542.77
2023-12-11T03:24:33.633Z,99549.38
2023-12-11T03:27:09.047Z,99545.24
2023-12-11T03:29:44.762Z,99541.70
2023-12-11T03:32:19.869Z,99539.48
2023-12-11T03:34:56.823Z,99538.73
2023-12-11T03:37:31.708Z,99537.17
2023-12-11T03:40:12.761Z,99535.77
2023-12-11T03:42:49.566Z,99536.73
2023-12-11T03:45:25.354Z,99535.59
2023-12-11T03:47:59.902Z,99537.15
2023-12-11T03:50:34.977Z,99538.42
2023-12-11T03:53:11.646Z,99538.73
2023-12-11T03:55:47.610Z,99533.52
2023-12-11T03:58:22.751Z,99527.16
2023-12-11T04:00:56.336Z,99523.65
2023-12-11T04:03:31.448Z,99521.71
2023-12-11T04:06:06.323Z,99515.20
2023-12-11T04:08:44.604Z,99513.52
2023-12-11T04:11:20.475Z,99512.92
2023-12-11T04:13:57.416Z,99512.73
2023-12-11T04:16:32.395Z,99508.82
2023-12-11T04:19:05.860Z,99508.30
2023-12-11T04:21:41.363Z,99500.53
2023-12-11T04:24:17.613Z,99497.80
2023-12-11T04:26:53.651Z,99493.04
2023-12-11T04:29:30.085Z,99489.31
2023-12-11T04:32:06.114Z,99497.52
2023-12-11T04:34:41.614Z,99490.19
2023-12-11T04:37:17.308Z,99497.17
2023-12-11T04:39:54.498Z,99487.20
2023-12-11T04:42:30.380Z,99486.83
2023-12-11T04:45:06.144Z,99482.50
2023-12-11T04:47:40.430Z,99485.12
2023-12-11T04:50:15.515Z,99480.59
2023-12-11T04:52:52.587Z,99476.53
2023-12-11T04:55:27.683Z,99472.29
2023-12-11T04:58:03.347Z,99466.20
2023-12-11T05:00:39.162Z,99469.21
2023-12-11T05:03:13.890Z,99466.51
2023-12-11T05:05:49.370Z,99465.23
2023-12-11T05:08:29.211Z,99458.84
2023-12-11T05:11:06.875Z,99456.86
2023-12-11T05:13:41.805Z,99457.65
2023-12-11T05:16:17.636Z,99458.80
2023-12-11T05:18:53.929Z,99456.61
2023-12-11T05:21:29.543Z,99450.70
2023-12-11T05:24:06.632Z,99449.88
2023-12-11T05:26:43.155Z,99445.05
2023-12-11T05:29:17.636Z,99439.63
2023-12-11T05:31:56.596Z,99436.21
2023-12-11T05:34:31.995Z,99425.44
2023-12-11T05:37:07.501Z,99421.56
2023-12-11T05:39:50.414Z,99418.58
2023-12-11T05:42:34.221Z,99416.83
2023-12-11T05:45:13.556Z,99413.55
2023-12-11T05:47:53.509Z,99410.45
2023-12-11T05:50:29.839Z,99403.38
2023-12-11T05:53:05.468Z,99398.36
2023-12-11T05:55:42.488Z,99398.91
2023-12-11T05:58:20.453Z,99394.86
2023-12-11T06:00:55.597Z,99392.32
2023-12-11T06:03:30.497Z,99394.44
2023-12-11T06:06:16.375Z,99385.66
2023-12-11T06:08:52.114Z,99380.25
2023-12-11T06:11:27.190Z,99372.84
2023-12-11T06:14:03.288Z,99367.66
2023-12-11T06:16:37.955Z,99364.85
2023-12-11T06:19:12.646Z,99363.00
2023-12-11T06:21:47.814Z,99358.67
2023-12-11T06:24:24.127Z,99354.89
2023-12-11T06:27:00.325Z,99352.04
2023-12-11T06:29:37.672Z,99350.09
2023-12-11T06:32:13.746Z,99346.16
2023-12-11T06:34:53.815Z,99344.56
2023-12-11T06:37:28.325Z,99340.09
2023-12-11T06:40:08.080Z,99338.86
2023-12-11T06:42:43.285Z,99336.47
2023-12-11T06:45:23.855Z,99334.42
2023-12-11T06:47:58.717Z,99332.08
2023-12-11T06:50:34.395Z,99325.54
2023-12-11T06:53:09.974Z,99320.92
2023-12-11T06:55:47.126Z,99317.98
2023-12-11T06:58:23.198Z,99318.64
2023-12-11T07:00:58.241Z,99314.21
2023-12-11T07:03:33.358Z,99314.69
2023-12-11T07:06:12.426Z,99308.45
2023-12-11T07:08:47.228Z,99303.44
2023-12-11T07:11:21.717Z,99306.77
2023-12-11T07:13:56.759Z,99308.25
2023-12-11T07:16:36.689Z,99300.23
2023-12-11T07:19:12.847Z,99298.00
2023-12-11T07:21:48.806Z,99293.93
2023-12-11T07:24:25.461Z,99287.09
2023-12-11T07:27:01.804Z,99282.73
2023-12-11T07:29:38.781Z,99276.79
2023-12-11T07:32:13.475Z,99274.98
2023-12-11T07:34:48.403Z,99271.16
2023-12-11T07:37:24.779Z,99273.27
2023-12-11T07:40:00.235Z,99267.68
2023-12-11T07:42:35.567Z,99265.29
2023-12-11T07:45:14.217Z,99260.09
2023-12-11T07:47:51.133Z,99258.23
2023-12-11T07:50:27.922Z,99256.69
2023-12-11T07:53:05.405Z,99252.14
2023-12-11T07:55:43.406Z,99250.84
2023-12-11T07:58:21.375Z,99251.40
2023-12-11T08:01:01.077Z,99246.96
2023-12-11T08:03:38.005Z,99244.52
2023-12-11T08:06:13.746Z,99244.80
2023-12-11T08:08:53.007Z,99242.13
2023-12-11T08:11:30.072Z,99236.76
2023-12-11T08:14:09.285Z,99233.66
2023-12-11T08:16:44.657Z,99229.45
2023-12-11T08:19:23.051Z,99226.70
2023-12-11T08:21:59.320Z,99218.75
2023-12-11T08:24:38.834Z,99217.50
2023-12-11T08:27:16.995Z,99214.79
2023-12-11T08:29:53.826Z,99215.47
2023-12-11T08:32:31.748Z,99205.02
2023-12-11T08:35:06.013Z,99206.34
2023-12-11T08:37:42.927Z,99203.79
2023-12-11T08:40:22.115Z,99201.55
2023-12-11T08:42:57.522Z,99200.77
2023-12-11T08:45:32.304Z,99206.98
2023-12-11T08:48:10.852Z,99199.80
2023-12-11T08:50:45.866Z,99193.38
2023-12-11T08:53:20.356Z,99186.61
2023-12-11T08:55:56.657Z,99187.85
2023-12-11T08:58:34.314Z,99186.63
2023-12-11T09:01:10.018Z,99183.71
2023-12-11T09:03:45.686Z,99184.60
2023-12-11T09:06:21.307Z,99185.67
2023-12-11T09:08:59.327Z,99181.77
2023-12-11T09:11:35.001Z,99180.42
2023-12-11T09:14:10.784Z,99177.58
2023-12-11T09:16:49.363Z,99177.45
2023-12-11T09:19:36.234Z,99172.63
2023-12-11T09:22:19.192Z,99173.52
2023-12-11T09:24:55.372Z,99174.89
2023-12-11T09:27:32.558Z,99170.23
2023-12-11T09:30:21.059Z,99170.24
2023-12-11T09:32:55.734Z,99170.41
2023-12-11T09:35:30.641Z,99165.83
2023-12-11T09:38:05.864Z,99161.88
2023-12-11T09:40:43.422Z,99161.90
2023-12-11T09:43:20.830Z,99157.63
2023-12-11T09:45:58.620Z,99159.99
2023-12-11T09:48:35.304Z,99154.12
2023-12-11T09:51:11.465Z,99147.73
2023-12-11T09:53:49.080Z,99151.09
2023-12-11T09:56:24.286Z,99145.72
2023-12-11T09:59:01.314Z,99143.61
2023-12-11T10:01:39.517Z,99145.43
2023-12-11T10:04:15.540Z,99147.33
2023-12-11T10:06:56.002Z,99144.54
2023-12-11T10:09:38.141Z,99139.11
2023-12-11T10:12:14.495Z,99135.35
2023-12-11T10:15:05.956Z,99133.14
2023-12-11T10:17:41.440Z,99132.74
2023-12-11T10:20:32.645Z,99128.25
2023-12-11T10:23:20.083Z,99124.42
2023-12-11T10:25:57.868Z,99125.17
2023-12-11T10:28:33.664Z,99121.42
2023-12-11T10:31:11.480Z,99116.77
2023-12-11T10:33:54.654Z,99116.65
2023-12-11T10:36:30.411Z,99122.14
2023-12-11T10:39:15.450Z,99117.23
2023-12-11T10:41:53.726Z,99118.00
2023-12-11T10:44:43.557Z,99120.22
2023-12-11T10:47:25.788Z,99116.92
2023-12-11T10:50:05.199Z,99117.73
2023-12-11T10:52:46.658Z,99119.08
2023-12-11T10:55:21.697Z,99117.62
2023-12-11T10:57:58.182Z,99115.71
2023-12-11T11:00:39.540Z,99114.11
2023-12-11T11:03:16.220Z,99114.97
2023-12-11T11:05:57.713Z,99118.55
2023-12-11T11:08:38.607Z,99119.24
2023-12-11T11:11:24.076Z,99121.98
2023-12-11T11:14:27.358Z,99122.30
2023-12-11T11:17:03.396Z,99123.70
2023-12-11T11:19:37.733Z,99125.61
2023-12-11T11:22:35.826Z,99125.23
2023-12-11T11:25:35.050Z,99121.70
2023-12-11T11:28:14.412Z,99113.55
2023-12-11T11:30:55.333Z,99118.87
2023-12-11T11:33:45.765Z,99119.89
2023-12-11T11:36:23.318Z,99115.68
2023-12-11T11:39:08.835Z,99111.87
2023-12-11T11:41:45.722Z,99114.59
2023-12-11T11:44:26.254Z,99115.77
2023-12-11T11:47:02.536Z,99116.65
2023-12-11T11:49:38.544Z,99118.60
2023-12-11T11:52:17.074Z,99115.25
2023-12-11T11:54:53.509Z,99115.27
2023-12-11T11:57:34.342Z,99115.21
2023-12-11T12:00:12.487Z,99112.52
2023-12-11T12:02:47.742Z,99116.50
2023-12-11T12:05:25.804Z,99113.13
2023-12-11T12:08:02.115Z,99112.85
2023-12-11T12:10:36.774Z,99115.02
2023-12-11T12:13:14.987Z,99117.61
2023-12-11T12:15:54.878Z,99114.57
2023-12-11T12:18:30.899Z,99118.71
2023-12-11T12:21:12.300Z,99122.83
2023-12-11T12:24:07.785Z,99124.80
2023-12-11T12:26:44.151Z,99124.51
2023-12-11T12:29:20.528Z,99125.08
2023-12-11T12:31:56.650Z,99128.13
2023-12-11T12:34:36.756Z,99128.63
2023-12-11T12:37:13.155Z,99125.17
2023-12-11T12:39:47.733Z,99125.79
2023-12-11T12:42:22.924Z,99123.64
2023-12-11T12:44:58.666Z,99125.82
2023-12-11T12:47:35.336Z,99124.70
2023-12-11T12:50:22.022Z,99127.40
2023-12-11T12:53:07.490Z,99125.72
2023-12-11T12:55:44.453Z,99124.69
2023-12-11T12:58:29.953Z,99126.73
2023-12-11T13:01:08.330Z,99123.61
2023-12-11T13:03:45.218Z,99125.48
2023-12-11T13:06:33.893Z,99118.59
2023-12-11T13:09:12.031Z,99121.02
2023-12-11T13:11:48.629Z,99127.39
2023-12-11T13:14:24.997Z,99128.33
2023-12-11T13:16:59.585Z,99129.39
2023-12-11T13:19:35.088Z,99133.45
2023-12-11T13:22:12.180Z,99131.08
2023-12-11T13:24:47.652Z,99130.11
2023-12-11T13:27:27.577Z,99135.88
2023-12-11T13:30:03.740Z,99136.77
2023-12-11T13:32:42.953Z,99137.35
2023-12-11T13:35:17.303Z,99138.62
2023-12-11T13:37:52.283Z,99138.19
2023-12-11T13:40:29.913Z,99141.91
2023-12-11T13:43:06.560Z,99144.63
2023-12-11T13:45:45.112Z,99146.05
2023-12-11T13:48:19.482Z,99141.12
2023-12-11T13:50:53.408Z,99145.64
2023-12-11T13:53:28.256Z,99150.52
2023-12-11T13:56:06.293Z,99154.91
2023-12-11T13:58:46.901Z,99153.70
2023-12-11T14:01:22.728Z,99154.23
2023-12-11T14:03:58.426Z,99156.55
2023-12-11T14:06:33.941Z,99161.33
2023-12-11T14:09:11.588Z,99162.94
2023-12-11T14:11:45.708Z,99163.40
2023-12-11T14:14:24.908Z,99158.41
2023-12-11T14:17:02.105Z,99163.23
2023-12-11T14:19:39.701Z,99161.30
2023-12-11T14:22:15.524Z,99165.14
2023-12-11T14:24:51.939Z,99168.52
2023-12-11T14:27:26.577Z,99172.63
2023-12-11T14:30:01.532Z,99172.83
2023-12-11T14:32:36.724Z,99176.83
2023-12-11T14:35:13.518Z,99178.89
2023-12-11T14:37:48.918Z,99180.98
2023-12-11T14:40:24.212Z,99184.13
2023-12-11T14:43:01.206Z,99188.05
2023-12-11T14:45:37.146Z,99188.64
2023-12-11T14:48:14.204Z,99187.61
2023-12-11T14:50:48.469Z,99192.14
2023-12-11T14:53:24.574Z,99190.38
2023-12-11T14:56:00.255Z,99194.07
2023-12-11T14:58:36.821Z,99193.69
2023-12-11T15:01:12.271Z,99196.55
2023-12-11T15:03:46.639Z,99198.52
2023-12-11T15:06:24.273Z,99200.08
2023-12-11T15:09:00.433Z,99203.03
2023-12-11T15:11:37.668Z,99198.77
2023-12-11T15:14:14.686Z,99198.11
2023-12-11T15:16:51.039Z,99205.20
2023-12-11T15:19:26.748Z,99200.95
2023-12-11T15:22:00.624Z,99200.11
2023-12-11T15:24:36.032Z,99199.84
2023-12-11T15:27:13.320Z,99199.49
2023-12-11T15:29:47.268Z,99197.81
2023-12-11T15:32:21.482Z,99197.65
2023-12-11T15:34:58.097Z,99200.30
2023-12-11T15:37:33.691Z,99198.98
2023-12-11T15:40:10.166Z,99199.85
2023-12-11T15:42:46.852Z,99200.48
2023-12-11T15:45:22.351Z,99196.95
2023-12-11T15:48:01.894Z,99198.33
2023-12-11T15:50:39.481Z,99196.14
2023-12-11T15:53:14.197Z,99198.03
2023-12-11T15:55:49.391Z,99193.95
2023-12-11T15:58:24.857Z,99194.13
2023-12-11T16:01:01.364Z,99190.98
2023-12-11T16:04:03.195Z,99193.29
2023-12-11T16:06:37.905Z,99196.83
2023-12-11T16:09:12.221Z,99197.36
2023-12-11T16:11:49.328Z,99192.70
2023-12-11T16:14:24.902Z,99193.27
2023-12-11T16:16:59.736Z,99195.49
2023-12-11T16:19:41.590Z,99192.16
2023-12-11T16:22:19.998Z,99193.20
2023-12-11T16:24:56.677Z,99191.05
2023-12-11T16:27:36.738Z,99187.40
2023-12-11T16:30:16.632Z,99191.39
2023-12-11T16:32:55.273Z,99189.92
2023-12-11T16:35:30.072Z,99185.20
2023-12-11T16:38:06.394Z,99185.96
2023-12-11T16:40:42.718Z,99186.35
2023-12-11T16:43:19.127Z,99184.48
2023-12-11T16:45:53.349Z,99186.06
2023-12-11T16:48:29.858Z,99185.96
2023-12-11T16:51:05.400Z,99187.44
2023-12-11T16:53:40.368Z,99188.64
2023-12-11T16:56:20.408Z,99193.88
2023-12-11T16:58:57.477Z,99192.98
2023-12-11T17:01:32.662Z,99191.95
2023-12-11T17:04:07.634Z,99194.08
2023-12-11T17:06:43.337Z,99192.02
2023-12-11T17:09:18.327Z,99192.30
2023-12-11T17:11:53.959Z,99195.58
2023-12-11T17:14:30.462Z,99198.38
2023-12-11T17:17:05.263Z,99199.27
2023-12-11T17:19:39.097Z,99198.39
2023-12-11T17:22:14.128Z,99202.42
2023-12-11T17:24:50.728Z,99199.77
2023-12-11T17:27:27.121Z,99199.95
2023-12-11T17:30:04.354Z,99200.05
2023-12-11T17:32:39.547Z,99197.89
2023-12-11T17:35:15.656Z,99197.90
2023-12-11T17:37:51.616Z,99198.46
2023-12-11T17:40:29.633Z,99197.90
2023-12-11T17:43:05.867Z,99198.69
2023-12-11T17:45:41.534Z,99200.23
2023-12-11T17:48:18.389Z,99198.98
2023-12-11T17:50:54.008Z,99202.11
2023-12-11T17:53:30.303Z,99201.77
2023-12-11T17:56:09.782Z,99204.56
2023-12-11T17:58:46.782Z,99206.45
2023-12-11T18:01:21.331Z,99206.31
2023-12-11T18:03:58.428Z,99205.48
2023-12-11T18:06:33.195Z,99210.02
2023-12-11T18:09:12.001Z,99206.89
2023-12-11T18:11:47.549Z,99205.64
2023-12-11T18:14:24.269Z,99207.40
2023-12-11T18:16:58.586Z,99207.45
2023-12-11T18:19:34.783Z,99209.56
2023-12-11T18:22:11.309Z,99215.02
2023-12-11T18:24:47.905Z,99212.04
2023-12-11T18:27:24.102Z,99209.77
2023-12-11T18:29:59.025Z,99206.48
2023-12-11T18:32:33.605Z,99205.63
2023-12-11T18:35:12.309Z,99206.15
2023-12-11T18:37:48.308Z,99205.09
2023-12-11T18:40:22.577Z,99202.99
2023-12-11T18:42:57.623Z,99202.45
2023-12-11T18:45:30.513Z,99205.73
2023-12-11T18:48:06.434Z,99206.80
2023-12-11T18:50:41.837Z,99206.95
2023-12-11T18:53:17.848Z,99209.14
2023-12-11T18:55:59.964Z,99208.77
2023-12-11T18:58:38.829Z,99206.73
2023-12-11T19:01:14.876Z,99206.90
2023-12-11T19:03:51.939Z,99202.82
2023-12-11T19:06:27.499Z,99209.46
2023-12-11T19:09:01.768Z,99207.73
2023-12-11T19:11:40.755Z,99206.27
2023-12-11T19:14:18.475Z,99208.16
2023-12-11T19:16:52.394Z,99210.00
2023-12-11T19:19:26.793Z,99211.92
2023-12-11T19:22:01.498Z,99220.48
2023-12-11T19:24:37.070Z,99216.86
2023-12-11T19:27:13.005Z,99219.09
2023-12-11T19:29:49.217Z,99224.64
2023-12-11T19:32:23.423Z,99228.59
2023-12-11T19:34:58.271Z,99226.82
2023-12-11T19:37:34.243Z,99227.30
2023-12-11T19:40:20.742Z,99229.55
2023-12-11T19:42:55.974Z,99231.02
2023-12-11T19:45:30.810Z,99236.47
2023-12-11T19:48:07.567Z,99235.98
2023-12-11T19:50:41.564Z,99233.27
2023-12-11T19:53:19.170Z,99235.55
2023-12-11T19:55:53.333Z,99236.24
2023-12-11T19:58:29.163Z,99237.13
2023-12-11T20:01:03.089Z,99238.55
2023-12-11T20:03:38.878Z,99240.15
2023-12-11T20:06:14.323Z,99243.72
2023-12-11T20:08:55.085Z,99242.68
2023-12-11T20:11:31.855Z,99249.38
2023-12-11T20:14:09.200Z,99251.98
2023-12-11T20:16:45.852Z,99252.74
2023-12-11T20:19:21.708Z,99249.44
2023-12-11T20:21:57.783Z,99253.12
2023-12-11T20:24:33.127Z,99252.98
2023-12-11T20:27:09.167Z,99254.60
2023-12-11T20:29:44.841Z,99257.78
2023-12-11T20:32:19.450Z,99256.05
2023-12-11T20:34:56.072Z,99261.54
2023-12-11T20:37:31.690Z,99262.08
2023-12-11T20:40:07.768Z,99264.70
2023-12-11T20:42:42.831Z,99265.09
2023-12-11T20:45:19.583Z,99268.09
2023-12-11T20:47:54.338Z,99267.77
2023-12-11T20:50:30.768Z,99266.73
2023-12-11T20:53:04.631Z,99270.83
2023-12-11T20:55:46.753Z,99273.79
2023-12-11T20:58:26.871Z,99276.98
2023-12-11T21:01:02.816Z,99278.06
2023-12-11T21:03:41.917Z,99278.44
2023-12-11T21:06:17.210Z,99280.91
2023-12-11T21:08:57.734Z,99276.89
2023-12-11T21:11:39.799Z,99277.35
2023-12-11T21:14:14.750Z,99284.22
2023-12-11T21:16:52.421Z,99288.79
2023-12-11T21:19:26.873Z,99289.33
2023-12-11T21:22:06.251Z,99291.98
2023-12-11T21:24:40.722Z,99295.52
2023-12-11T21:27:17.483Z,99295.89
2023-12-11T21:29:52.450Z,99296.97
2023-12-11T21:32:27.277Z,99296.11
2023-12-11T21:35:02.406Z,99295.98
2023-12-11T21:37:40.054Z,99297.91
2023-12-11T21:40:18.644Z,99299.34
2023-12-11T21:42:57.139Z,99301.95
2023-12-11T21:45:31.807Z,99303.35
2023-12-11T21:48:06.426Z,99310.31
2023-12-11T21:50:42.059Z,99317.00
2023-12-11T21:53:15.921Z,99315.46
2023-12-11T21:55:52.414Z,99319.83
2023-12-11T21:58:28.536Z,99325.42
2023-12-11T22:01:06.126Z,99328.54
2023-12-11T22:03:41.594Z,99328.41
2023-12-11T22:06:17.286Z,99333.17
2023-12-11T22:08:50.817Z,99330.58
2023-12-11T22:11:25.338Z,99333.42
2023-12-11T22:13:59.322Z,99336.26
2023-12-11T22:16:39.648Z,99336.78
2023-12-11T22:19:15.425Z,99340.47
2023-12-11T22:21:53.409Z,99348.86
2023-12-11T22:24:27.231Z,99348.21
2023-12-11T22:27:01.887Z,99357.84
2023-12-11T22:29:39.075Z,99360.17
2023-12-11T22:32:13.157Z,99363.52
2023-12-11T22:34:47.631Z,99363.51
2023-12-11T22:37:22.183Z,99365.98
2023-12-11T22:39:57.348Z,99369.51
2023-12-11T22:42:31.376Z,99368.98
2023-12-11T22:45:06.166Z,99371.58
2023-12-11T22:47:42.639Z,99375.06
2023-12-11T22:50:20.920Z,99373.92
2023-12-11T22:52:56.176Z,99375.42
2023-12-11T22:55:29.881Z,99376.80
2023-12-11T22:58:13.793Z,99380.26
2023-12-11T23:00:51.859Z,99382.47
2023-12-11T23:03:27.074Z,99385.03
2023-12-11T23:06:02.028Z,99385.16
2023-12-11T23:08:37.239Z,99386.20
2023-12-11T23:11:14.935Z,99389.64
2023-12-11T23:13:48.865Z,99391.05
2023-12-11T23:16:29.415Z,99390.46
2023-12-11T23:19:06.312Z,99394.10
2023-12-11T23:21:41.586Z,99396.33
2023-12-11T23:24:16.506Z,99396.84
2023-12-11T23:26:52.372Z,99394.39
2023-12-11T23:29:29.521Z,99398.41
2023-12-11T23:32:04.183Z,99399.63
2023-12-11T23:34:39.350Z,99403.84
2023-12-11T23:37:15.553Z,99406.52
2023-12-11T23:39:49.489Z,99411.23
2023-12-11T23:42:23.880Z,99413.10
2023-12-11T23:44:58.888Z,99417.54
2023-12-11T23:47:35.924Z,99417.11
2023-12-11T23:50:15.632Z,99423.33
2023-12-11T23:52:50.155Z,99426.46
2023-12-11T23:55:25.558Z,99428.33
2023-12-11T23:58:03.577Z,99432.31
